York, Pennsylvania
Current Conditions -  °F | °C
As of 10:53 PM on Saturday 25 Oct 2014 (Local Time) from KTHV Reporting Station
Clear Clear  
Wind Chill: 17°   Ceiling: Unl
Heat Index: 17°   Visibility: 10mi
Dew Point:   Wind: 12mph
Humidity: 56%   Direction: 230°SW
Pressure: 29.65"   Gusts: 21mph
Location:  39.96°N, 76.72°W
Report Text: KTHV 260253Z AUTO 23010G18KT 10SM CLR 17/08 A2965 RMK AO2 SLP041 T01720083 58016
Loading
Personal Weather Stations






























Interactive Weather Map
Tropical Storm Tracking
New forecast layout! Learn more

10-Day Weather Forecast

Advertisements
Track Severe Weather on mobile